sensor_id;sensor_type;location;lat;lon;timestamp;pressure;altitude;pressure_sealevel;temperature;humidity
57568;BME280;43403;51.948;5.922;2023-01-19T00:00:26;99988.13;;;1.96;100.00
57568;BME280;43403;51.948;5.922;2023-01-19T00:02:52;99981.84;;;1.88;100.00
57568;BME280;43403;51.948;5.922;2023-01-19T00:05:20;99979.03;;;1.91;100.00
57568;BME280;43403;51.948;5.922;2023-01-19T00:07:47;99981.84;;;1.88;100.00
57568;BME280;43403;51.948;5.922;2023-01-19T00:10:14;99971.28;;;1.91;100.00
57568;BME280;43403;51.948;5.922;2023-01-19T00:12:40;99972.00;;;1.93;100.00
57568;BME280;43403;51.948;5.922;2023-01-19T00:15:07;99974.69;;;1.91;100.00
57568;BME280;43403;51.948;5.922;2023-01-19T00:17:34;99978.53;;;1.86;100.00
57568;BME280;43403;51.948;5.922;2023-01-19T00:20:00;99970.78;;;1.86;100.00
57568;BME280;43403;51.948;5.922;2023-01-19T00:22:26;99971.19;;;1.92;100.00
57568;BME280;43403;51.948;5.922;2023-01-19T00:24:53;99979.03;;;1.91;100.00
57568;BME280;43403;51.948;5.922;2023-01-19T00:27:19;99974.47;;;1.94;100.00
57568;BME280;43403;51.948;5.922;2023-01-19T00:29:46;99976.94;;;1.96;100.00
57568;BME280;43403;51.948;5.922;2023-01-19T00:32:12;99982.00;;;1.97;100.00
57568;BME280;43403;51.948;5.922;2023-01-19T00:34:39;99978.00;;;1.93;100.00
57568;BME280;43403;51.948;5.922;2023-01-19T00:37:08;99973.41;;;1.97;100.00
57568;BME280;43403;51.948;5.922;2023-01-19T00:39:35;99978.50;;;1.98;100.00
57568;BME280;43403;51.948;5.922;2023-01-19T00:42:02;99976.00;;;1.97;100.00
57568;BME280;43403;51.948;5.922;2023-01-19T00:44:47;99968.59;;;1.92;100.00
57568;BME280;43403;51.948;5.922;2023-01-19T00:47:13;99968.59;;;1.92;100.00
57568;BME280;43403;51.948;5.922;2023-01-19T00:49:40;99965.88;;;1.94;100.00
57568;BME280;43403;51.948;5.922;2023-01-19T00:52:06;99977.06;;;1.94;100.00
57568;BME280;43403;51.948;5.922;2023-01-19T00:54:33;99966.72;;;1.94;100.00
57568;BME280;43403;51.948;5.922;2023-01-19T00:56:59;99967.44;;;1.96;100.00
57568;BME280;43403;51.948;5.922;2023-01-19T00:59:26;99980.81;;;1.90;100.00
57568;BME280;43403;51.948;5.922;2023-01-19T01:01:52;99966.22;;;1.89;100.00
57568;BME280;43403;51.948;5.922;2023-01-19T01:04:19;99958.25;;;1.92;100.00
57568;BME280;43403;51.948;5.922;2023-01-19T01:06:45;99962.38;;;1.95;100.00
57568;BME280;43403;51.948;5.922;2023-01-19T01:09:12;99967.63;;;1.93;100.00
57568;BME280;43403;51.948;5.922;2023-01-19T01:11:40;99966.94;;;1.91;100.00
57568;BME280;43403;51.948;5.922;2023-01-19T01:14:07;99962.09;;;1.87;100.00
57568;BME280;43403;51.948;5.922;2023-01-19T01:16:34;99963.13;;;1.84;100.00
57568;BME280;43403;51.948;5.922;2023-01-19T01:19:00;99965.25;;;1.79;100.00
57568;BME280;43403;51.948;5.922;2023-01-19T01:21:26;99966.41;;;1.75;100.00
57568;BME280;43403;51.948;5.922;2023-01-19T01:23:53;99981.31;;;1.71;100.00
57568;BME280;43403;51.948;5.922;2023-01-19T01:26:20;99958.38;;;1.67;100.00
57568;BME280;43403;51.948;5.922;2023-01-19T01:28:46;99966.59;;;1.72;100.00
57568;BME280;43403;51.948;5.922;2023-01-19T01:31:13;99960.97;;;1.67;100.00
57568;BME280;43403;51.948;5.922;2023-01-19T01:33:39;99954.63;;;1.71;100.00
57568;BME280;43403;51.948;5.922;2023-01-19T01:36:08;99963.09;;;1.73;100.00
57568;BME280;43403;51.948;5.922;2023-01-19T01:38:35;99963.56;;;1.78;100.00
57568;BME280;43403;51.948;5.922;2023-01-19T01:41:01;99956.22;;;1.85;100.00
57568;BME280;43403;51.948;5.922;2023-01-19T01:43:45;99957.84;;;1.86;100.00
57568;BME280;43403;51.948;5.922;2023-01-19T01:46:14;99961.50;;;1.83;100.00
57568;BME280;43403;51.948;5.922;2023-01-19T01:48:47;99957.75;;;1.87;100.00
57568;BME280;43403;51.948;5.922;2023-01-19T01:51:21;99953.28;;;1.89;100.00
57568;BME280;43403;51.948;5.922;2023-01-19T01:54:14;99955.38;;;1.84;100.00
57568;BME280;43403;51.948;5.922;2023-01-19T01:56:46;99961.59;;;1.82;100.00
57568;BME280;43403;51.948;5.922;2023-01-19T01:59:15;99952.78;;;1.84;100.00
57568;BME280;43403;51.948;5.922;2023-01-19T02:01:53;99954.91;;;1.79;100.00
57568;BME280;43403;51.948;5.922;2023-01-19T02:04:46;99941.97;;;1.79;100.00
57568;BME280;43403;51.948;5.922;2023-01-19T02:07:22;99948.91;;;1.78;100.00
57568;BME280;43403;51.948;5.922;2023-01-19T02:10:10;99956.22;;;1.61;100.00
57568;BME280;43403;51.948;5.922;2023-01-19T02:12:56;99974.25;;;1.49;100.00
57568;BME280;43403;51.948;5.922;2023-01-19T02:15:41;99965.09;;;1.45;100.00
57568;BME280;43403;51.948;5.922;2023-01-19T02:18:07;99968.47;;;1.46;100.00
57568;BME280;43403;51.948;5.922;2023-01-19T02:20:34;99968.78;;;1.41;100.00
57568;BME280;43403;51.948;5.922;2023-01-19T02:23:07;99966.34;;;1.27;100.00
57568;BME280;43403;51.948;5.922;2023-01-19T02:25:36;99968.28;;;1.12;100.00
57568;BME280;43403;51.948;5.922;2023-01-19T02:28:03;99986.03;;;1.04;100.00
57568;BME280;43403;51.948;5.922;2023-01-19T02:30:30;99978.91;;;1.07;100.00
57568;BME280;43403;51.948;5.922;2023-01-19T02:32:58;99964.56;;;1.03;100.00
57568;BME280;43403;51.948;5.922;2023-01-19T02:35:25;99973.78;;;0.94;100.00
57568;BME280;43403;51.948;5.922;2023-01-19T02:37:53;99973.25;;;0.89;100.00
57568;BME280;43403;51.948;5.922;2023-01-19T02:40:20;99979.56;;;0.85;100.00
57568;BME280;43403;51.948;5.922;2023-01-19T02:42:51;99976.47;;;0.93;100.00
57568;BME280;43403;51.948;5.922;2023-01-19T02:45:19;99984.53;;;0.88;100.00
57568;BME280;43403;51.948;5.922;2023-01-19T02:47:48;99987.84;;;0.90;100.00
57568;BME280;43403;51.948;5.922;2023-01-19T02:53:20;99984.81;;;0.84;100.00
57568;BME280;43403;51.948;5.922;2023-01-19T02:56:48;99981.31;;;0.85;100.00
57568;BME280;43403;51.948;5.922;2023-01-19T02:59:43;99984.31;;;0.78;100.00
57568;BME280;43403;51.948;5.922;2023-01-19T03:05:15;99983.06;;;0.84;100.00
57568;BME280;43403;51.948;5.922;2023-01-19T03:11:09;99986.97;;;0.90;100.00
57568;BME280;43403;51.948;5.922;2023-01-19T03:13:50;100001.75;;;0.88;100.00
57568;BME280;43403;51.948;5.922;2023-01-19T03:16:28;100000.41;;;0.82;100.00
57568;BME280;43403;51.948;5.922;2023-01-19T03:19:10;100004.56;;;0.72;100.00
57568;BME280;43403;51.948;5.922;2023-01-19T03:21:42;99999.63;;;0.69;100.00
57568;BME280;43403;51.948;5.922;2023-01-19T03:24:12;100004.16;;;0.65;100.00
57568;BME280;43403;51.948;5.922;2023-01-19T03:26:45;100006.63;;;0.67;100.00
57568;BME280;43403;51.948;5.922;2023-01-19T03:29:13;100022.41;;;0.62;100.00
57568;BME280;43403;51.948;5.922;2023-01-19T03:31:44;100026.03;;;0.59;100.00
57568;BME280;43403;51.948;5.922;2023-01-19T03:34:13;100031.38;;;0.56;100.00
57568;BME280;43403;51.948;5.922;2023-01-19T03:36:45;100025.41;;;0.56;100.00
57568;BME280;43403;51.948;5.922;2023-01-19T03:39:20;100036.53;;;0.56;100.00
57568;BME280;43403;51.948;5.922;2023-01-19T03:41:47;100029.53;;;0.58;100.00
57568;BME280;43403;51.948;5.922;2023-01-19T03:44:15;100031.59;;;0.53;100.00
57568;BME280;43403;51.948;5.922;2023-01-19T03:46:43;100030.03;;;0.51;100.00
57568;BME280;43403;51.948;5.922;2023-01-19T03:49:11;100023.31;;;0.48;100.00
57568;BME280;43403;51.948;5.922;2023-01-19T03:51:37;100030.56;;;0.56;100.00
57568;BME280;43403;51.948;5.922;2023-01-19T03:54:05;100035.72;;;0.56;100.00
57568;BME280;43403;51.948;5.922;2023-01-19T03:56:32;100033.78;;;0.59;100.00
57568;BME280;43403;51.948;5.922;2023-01-19T03:58:59;100033.97;;;0.56;100.00
57568;BME280;43403;51.948;5.922;2023-01-19T04:01:25;100042.34;;;0.60;100.00
57568;BME280;43403;51.948;5.922;2023-01-19T04:03:52;100044.00;;;0.61;100.00
57568;BME280;43403;51.948;5.922;2023-01-19T04:06:20;100039.34;;;0.66;100.00
57568;BME280;43403;51.948;5.922;2023-01-19T04:08:47;100039.78;;;0.73;100.00
57568;BME280;43403;51.948;5.922;2023-01-19T04:11:14;100038.94;;;0.72;100.00
57568;BME280;43403;51.948;5.922;2023-01-19T04:13:41;100043.81;;;0.77;100.00
57568;BME280;43403;51.948;5.922;2023-01-19T04:16:08;100048.22;;;0.88;100.00
57568;BME280;43403;51.948;5.922;2023-01-19T04:18:35;100043.50;;;0.94;100.00
57568;BME280;43403;51.948;5.922;2023-01-19T04:21:03;100045.03;;;0.97;100.00
57568;BME280;43403;51.948;5.922;2023-01-19T04:23:31;100049.16;;;0.99;100.00
57568;BME280;43403;51.948;5.922;2023-01-19T04:26:01;100049.25;;;0.98;100.00
57568;BME280;43403;51.948;5.922;2023-01-19T04:28:28;100057.75;;;1.00;100.00
57568;BME280;43403;51.948;5.922;2023-01-19T04:30:55;100051.75;;;0.87;100.00
57568;BME280;43403;51.948;5.922;2023-01-19T04:33:22;100042.25;;;0.87;100.00
57568;BME280;43403;51.948;5.922;2023-01-19T04:35:50;100049.56;;;0.93;100.00
57568;BME280;43403;51.948;5.922;2023-01-19T04:38:19;100064.25;;;0.93;100.00
57568;BME280;43403;51.948;5.922;2023-01-19T04:40:47;100070.75;;;0.98;100.00
57568;BME280;43403;51.948;5.922;2023-01-19T04:43:15;100077.78;;;0.96;100.00
57568;BME280;43403;51.948;5.922;2023-01-19T04:45:42;100064.66;;;0.99;100.00
57568;BME280;43403;51.948;5.922;2023-01-19T04:48:12;100067.75;;;1.05;100.00
57568;BME280;43403;51.948;5.922;2023-01-19T04:50:39;100050.81;;;1.01;100.00
57568;BME280;43403;51.948;5.922;2023-01-19T04:53:07;100061.56;;;1.07;100.00
57568;BME280;43403;51.948;5.922;2023-01-19T04:55:36;100060.00;;;1.05;100.00
57568;BME280;43403;51.948;5.922;2023-01-19T04:58:02;100067.75;;;1.05;100.00
57568;BME280;43403;51.948;5.922;2023-01-19T05:00:29;100067.66;;;1.06;100.00
57568;BME280;43403;51.948;5.922;2023-01-19T05:02:55;100067.66;;;1.06;100.00
57568;BME280;43403;51.948;5.922;2023-01-19T05:05:21;100068.28;;;1.10;100.00
57568;BME280;43403;51.948;5.922;2023-01-19T05:07:48;100069.50;;;1.17;100.00
57568;BME280;43403;51.948;5.922;2023-01-19T05:10:15;100080.38;;;1.22;100.00
57568;BME280;43403;51.948;5.922;2023-01-19T05:12:41;100080.34;;;1.35;100.00
57568;BME280;43403;51.948;5.922;2023-01-19T05:15:09;100088.94;;;1.35;100.00
57568;BME280;43403;51.948;5.922;2023-01-19T05:17:36;100083.88;;;1.34;100.00
57568;BME280;43403;51.948;5.922;2023-01-19T05:20:02;100087.50;;;1.31;100.00
57568;BME280;43403;51.948;5.922;2023-01-19T05:22:29;100081.38;;;1.32;100.00
57568;BME280;43403;51.948;5.922;2023-01-19T05:24:55;100093.25;;;1.35;100.00
57568;BME280;43403;51.948;5.922;2023-01-19T05:27:22;100095.03;;;1.34;100.00
57568;BME280;43403;51.948;5.922;2023-01-19T05:29:48;100094.94;;;1.36;100.00
57568;BME280;43403;51.948;5.922;2023-01-19T05:32:15;100093.59;;;1.30;100.00
57568;BME280;43403;51.948;5.922;2023-01-19T05:34:41;100095.13;;;1.33;100.00
57568;BME280;43403;51.948;5.922;2023-01-19T05:37:07;100095.13;;;1.33;100.00
57568;BME280;43403;51.948;5.922;2023-01-19T05:39:34;100093.78;;;1.40;100.00
57568;BME280;43403;51.948;5.922;2023-01-19T05:42:00;100104.53;;;1.34;100.00
57568;BME280;43403;51.948;5.922;2023-01-19T05:44:27;100113.00;;;1.36;100.00
57568;BME280;43403;51.948;5.922;2023-01-19T05:46:53;100106.31;;;1.33;100.00
57568;BME280;43403;51.948;5.922;2023-01-19T05:49:19;100112.91;;;1.37;100.00
57568;BME280;43403;51.948;5.922;2023-01-19T05:51:46;100118.09;;;1.37;100.00
57568;BME280;43403;51.948;5.922;2023-01-19T05:54:13;100116.63;;;1.46;100.00
57568;BME280;43403;51.948;5.922;2023-01-19T05:56:41;100109.81;;;1.45;100.00
57568;BME280;43403;51.948;5.922;2023-01-19T05:59:08;100124.38;;;1.46;100.00
57568;BME280;43403;51.948;5.922;2023-01-19T06:01:34;100114.03;;;1.46;100.00
57568;BME280;43403;51.948;5.922;2023-01-19T06:04:05;100118.47;;;1.44;100.00
57568;BME280;43403;51.948;5.922;2023-01-19T06:06:31;100131.50;;;1.43;100.00
57568;BME280;43403;51.948;5.922;2023-01-19T06:08:58;100137.41;;;1.45;100.00
57568;BME280;43403;51.948;5.922;2023-01-19T06:11:24;100131.81;;;1.51;100.00
57568;BME280;43403;51.948;5.922;2023-01-19T06:13:51;100132.84;;;1.48;100.00
57568;BME280;43403;51.948;5.922;2023-01-19T06:16:17;100139.69;;;1.49;100.00
57568;BME280;43403;51.948;5.922;2023-01-19T06:18:44;100138.63;;;1.52;100.00
57568;BME280;43403;51.948;5.922;2023-01-19T06:21:10;100142.88;;;1.53;100.00
57568;BME280;43403;51.948;5.922;2023-01-19T06:23:39;100144.34;;;1.57;100.00
57568;BME280;43403;51.948;5.922;2023-01-19T06:26:06;100149.19;;;1.62;100.00
57568;BME280;43403;51.948;5.922;2023-01-19T06:28:33;100146.50;;;1.63;100.00
57568;BME280;43403;51.948;5.922;2023-01-19T06:30:59;100165.31;;;1.65;100.00
57568;BME280;43403;51.948;5.922;2023-01-19T06:33:26;100168.19;;;1.73;100.00
57568;BME280;43403;51.948;5.922;2023-01-19T06:35:53;100169.81;;;1.74;100.00
57568;BME280;43403;51.948;5.922;2023-01-19T06:38:20;100170.56;;;1.76;100.00
57568;BME280;43403;51.948;5.922;2023-01-19T06:40:54;100168.38;;;1.83;100.00
57568;BME280;43403;51.948;5.922;2023-01-19T06:43:24;100177.59;;;1.87;100.00
57568;BME280;43403;51.948;5.922;2023-01-19T06:45:51;100178.31;;;1.89;100.00
57568;BME280;43403;51.948;5.922;2023-01-19T06:48:18;100179.97;;;1.90;100.00
57568;BME280;43403;51.948;5.922;2023-01-19T06:50:45;100181.28;;;1.96;100.00
57568;BME280;43403;51.948;5.922;2023-01-19T06:53:12;100185.53;;;1.97;100.00
57568;BME280;43403;51.948;5.922;2023-01-19T06:55:38;100184.00;;;1.94;100.00
57568;BME280;43403;51.948;5.922;2023-01-19T06:58:05;100195.88;;;1.97;100.00
57568;BME280;43403;51.948;5.922;2023-01-19T07:00:31;100200.34;;;1.95;100.00
57568;BME280;43403;51.948;5.922;2023-01-19T07:02:58;100210.56;;;1.96;100.00
57568;BME280;43403;51.948;5.922;2023-01-19T07:05:25;100212.44;;;1.94;100.00
57568;BME280;43403;51.948;5.922;2023-01-19T07:07:53;100221.34;;;1.90;100.00
57568;BME280;43403;51.948;5.922;2023-01-19T07:10:20;100218.75;;;1.90;100.00
57568;BME280;43403;51.948;5.922;2023-01-19T07:12:47;100222.25;;;1.89;100.00
57568;BME280;43403;51.948;5.922;2023-01-19T07:15:16;100223.22;;;1.88;100.00
57568;BME280;43403;51.948;5.922;2023-01-19T07:17:44;100243.38;;;1.83;100.00
57568;BME280;43403;51.948;5.922;2023-01-19T07:20:12;100244.53;;;1.79;100.00
57568;BME280;43403;51.948;5.922;2023-01-19T07:22:42;100256.63;;;1.78;100.00
57568;BME280;43403;51.948;5.922;2023-01-19T07:25:11;100278.03;;;1.81;100.00
57568;BME280;43403;51.948;5.922;2023-01-19T07:27:38;100282.38;;;1.80;100.00
57568;BME280;43403;51.948;5.922;2023-01-19T07:30:06;100292.00;;;1.78;100.00
57568;BME280;43403;51.948;5.922;2023-01-19T07:32:33;100289.53;;;1.76;100.00
57568;BME280;43403;51.948;5.922;2023-01-19T07:34:59;100284.75;;;1.83;100.00
57568;BME280;43403;51.948;5.922;2023-01-19T07:37:26;100291.56;;;1.84;100.00
57568;BME280;43403;51.948;5.922;2023-01-19T07:39:52;100282.38;;;1.80;100.00
57568;BME280;43403;51.948;5.922;2023-01-19T07:42:19;100284.75;;;1.83;100.00
57568;BME280;43403;51.948;5.922;2023-01-19T07:44:45;100292.53;;;1.83;100.00
57568;BME280;43403;51.948;5.922;2023-01-19T07:47:11;100286.81;;;1.78;100.00
57568;BME280;43403;51.948;5.922;2023-01-19T07:49:38;100297.38;;;1.75;100.00
57568;BME280;43403;51.948;5.922;2023-01-19T07:52:05;100299.97;;;1.75;100.00
57568;BME280;43403;51.948;5.922;2023-01-19T07:54:31;100298.94;;;1.77;100.00
57568;BME280;43403;51.948;5.922;2023-01-19T07:56:58;100308.34;;;1.78;100.00
57568;BME280;43403;51.948;5.922;2023-01-19T07:59:28;100311.84;;;1.77;100.00
57568;BME280;43403;51.948;5.922;2023-01-19T08:01:57;100308.53;;;1.75;100.00
57568;BME280;43403;51.948;5.922;2023-01-19T08:04:27;100314.94;;;1.70;100.00
57568;BME280;43403;51.948;5.922;2023-01-19T08:06:54;100321.06;;;1.69;100.00
57568;BME280;43403;51.948;5.922;2023-01-19T08:09:21;100330.69;;;1.67;100.00
57568;BME280;43403;51.948;5.922;2023-01-19T08:11:49;100327.47;;;1.76;100.00
57568;BME280;43403;51.948;5.922;2023-01-19T08:14:15;100331.09;;;1.73;100.00
57568;BME280;43403;51.948;5.922;2023-01-19T08:16:42;100336.81;;;1.78;100.00
57568;BME280;43403;51.948;5.922;2023-01-19T08:19:08;100340.00;;;1.82;100.00
57568;BME280;43403;51.948;5.922;2023-01-19T08:21:35;100343.53;;;1.81;100.00
57568;BME280;43403;51.948;5.922;2023-01-19T08:24:01;100344.03;;;1.73;100.00
57568;BME280;43403;51.948;5.922;2023-01-19T08:26:32;100340.31;;;1.77;100.00
57568;BME280;43403;51.948;5.922;2023-01-19T08:29:01;100347.16;;;1.78;100.00
57568;BME280;43403;51.948;5.922;2023-01-19T08:31:28;100345.88;;;1.84;100.00
57568;BME280;43403;51.948;5.922;2023-01-19T08:33:54;100355.41;;;1.84;100.00
57568;BME280;43403;51.948;5.922;2023-01-19T08:36:21;100358.63;;;1.87;100.00
57568;BME280;43403;51.948;5.922;2023-01-19T08:38:49;100375.41;;;1.94;100.00
57568;BME280;43403;51.948;5.922;2023-01-19T08:41:15;100379.63;;;1.95;100.00
57568;BME280;43403;51.948;5.922;2023-01-19T08:43:42;100382.66;;;2.02;100.00
57568;BME280;43403;51.948;5.922;2023-01-19T08:46:11;100384.94;;;2.07;100.00
57568;BME280;43403;51.948;5.922;2023-01-19T08:48:37;100386.28;;;2.12;100.00
57568;BME280;43403;51.948;5.922;2023-01-19T08:51:05;100381.84;;;2.14;100.00
57568;BME280;43403;51.948;5.922;2023-01-19T08:53:31;100388.34;;;2.20;100.00
57568;BME280;43403;51.948;5.922;2023-01-19T08:55:58;100385.53;;;2.23;100.00
57568;BME280;43403;51.948;5.922;2023-01-19T08:58:28;100381.09;;;2.25;100.00
57568;BME280;43403;51.948;5.922;2023-01-19T09:00:54;100389.38;;;2.30;100.00
57568;BME280;43403;51.948;5.922;2023-01-19T09:03:21;100388.56;;;2.30;100.00
57568;BME280;43403;51.948;5.922;2023-01-19T09:05:48;100399.66;;;2.32;100.00
57568;BME280;43403;51.948;5.922;2023-01-19T09:08:15;100399.66;;;2.32;100.00
57568;BME280;43403;51.948;5.922;2023-01-19T09:10:46;100401.91;;;2.36;100.00
57568;BME280;43403;51.948;5.922;2023-01-19T09:13:19;100409.19;;;2.31;100.00
57568;BME280;43403;51.948;5.922;2023-01-19T09:15:46;100402.97;;;2.34;100.00
57568;BME280;43403;51.948;5.922;2023-01-19T09:18:15;100406.03;;;2.39;100.00
57568;BME280;43403;51.948;5.922;2023-01-19T09:20:43;100414.13;;;2.34;100.00
57568;BME280;43403;51.948;5.922;2023-01-19T09:23:12;100416.00;;;2.32;100.00
57568;BME280;43403;51.948;5.922;2023-01-19T09:25:39;100414.56;;;2.41;100.00
57568;BME280;43403;51.948;5.922;2023-01-19T09:28:07;100421.06;;;2.47;100.00
57568;BME280;43403;51.948;5.922;2023-01-19T09:30:35;100420.25;;;2.46;100.00
57568;BME280;43403;51.948;5.922;2023-01-19T09:33:03;100420.34;;;2.45;100.00
57568;BME280;43403;51.948;5.922;2023-01-19T09:35:32;100424.50;;;2.47;100.00
57568;BME280;43403;51.948;5.922;2023-01-19T09:37:59;100421.91;;;2.47;100.00
57568;BME280;43403;51.948;5.922;2023-01-19T09:40:27;100426.88;;;2.50;100.00
57568;BME280;43403;51.948;5.922;2023-01-19T09:43:11;100428.31;;;2.54;100.00
57568;BME280;43403;51.948;5.922;2023-01-19T09:45:48;100422.84;;;2.59;100.00
57568;BME280;43403;51.948;5.922;2023-01-19T09:50:57;100428.31;;;2.67;100.00
57568;BME280;43403;51.948;5.922;2023-01-19T09:56:19;100434.50;;;2.77;100.00
57568;BME280;43403;51.948;5.922;2023-01-19T09:58:50;100429.97;;;2.81;100.00
57568;BME280;43403;51.948;5.922;2023-01-19T10:06:39;100442.47;;;3.00;100.00
57568;BME280;43403;51.948;5.922;2023-01-19T10:09:20;100437.34;;;3.11;100.00
57568;BME280;43403;51.948;5.922;2023-01-19T10:11:56;100435.66;;;3.23;100.00
57568;BME280;43403;51.948;5.922;2023-01-19T10:14:33;100443.59;;;3.33;100.00
57568;BME280;43403;51.948;5.922;2023-01-19T10:17:12;100443.06;;;3.41;100.00
57568;BME280;43403;51.948;5.922;2023-01-19T10:19:44;100443.47;;;3.47;100.00
57568;BME280;43403;51.948;5.922;2023-01-19T10:22:21;100446.44;;;3.54;100.00
57568;BME280;43403;51.948;5.922;2023-01-19T10:24:57;100457.53;;;3.56;100.00
57568;BME280;43403;51.948;5.922;2023-01-19T10:27:27;100455.66;;;3.58;100.00
57568;BME280;43403;51.948;5.922;2023-01-19T10:29:56;100458.47;;;3.55;100.00
57568;BME280;43403;51.948;5.922;2023-01-19T10:32:28;100460.03;;;3.58;100.00
57568;BME280;43403;51.948;5.922;2023-01-19T10:34:57;100455.03;;;3.54;100.00
57568;BME280;43403;51.948;5.922;2023-01-19T10:37:30;100463.44;;;3.58;100.00
57568;BME280;43403;51.948;5.922;2023-01-19T10:42:38;100458.78;;;3.50;100.00
57568;BME280;43403;51.948;5.922;2023-01-19T10:45:16;100461.63;;;3.47;100.00
57568;BME280;43403;51.948;5.922;2023-01-19T10:47:45;100459.34;;;3.43;100.00
57568;BME280;43403;51.948;5.922;2023-01-19T10:50:29;100463.59;;;3.44;100.00
57568;BME280;43403;51.948;5.922;2023-01-19T10:52:58;100456.13;;;3.39;100.00
57568;BME280;43403;51.948;5.922;2023-01-19T10:55:37;100466.28;;;3.42;100.00
57568;BME280;43403;51.948;5.922;2023-01-19T10:58:05;100462.16;;;3.40;100.00
57568;BME280;43403;51.948;5.922;2023-01-19T11:03:20;100463.06;;;3.51;100.00
57568;BME280;43403;51.948;5.922;2023-01-19T11:05:48;100464.69;;;3.52;100.00
57568;BME280;43403;51.948;5.922;2023-01-19T11:08:26;100461.63;;;3.47;100.00
57568;BME280;43403;51.948;5.922;2023-01-19T11:10:58;100463.88;;;3.52;100.00
57568;BME280;43403;51.948;5.922;2023-01-19T11:13:27;100467.09;;;3.55;100.00
57568;BME280;43403;51.948;5.922;2023-01-19T11:15:56;100475.13;;;3.64;100.00
57568;BME280;43403;51.948;5.922;2023-01-19T11:18:35;100475.50;;;3.70;100.00
57568;BME280;43403;51.948;5.922;2023-01-19T11:21:03;100477.56;;;3.78;100.00
57568;BME280;43403;51.948;5.922;2023-01-19T11:23:37;100478.06;;;3.83;100.00
57568;BME280;43403;51.948;5.922;2023-01-19T11:26:44;100481.47;;;3.84;100.00
57568;BME280;43403;51.948;5.922;2023-01-19T11:29:22;100473.97;;;3.92;100.00
57568;BME280;43403;51.948;5.922;2023-01-19T11:31:50;100479.84;;;3.83;100.00
57568;BME280;43403;51.948;5.922;2023-01-19T11:34:26;100469.16;;;3.99;100.00
57568;BME280;43403;51.948;5.922;2023-01-19T11:42:12;100480.25;;;4.01;100.00
57568;BME280;43403;51.948;5.922;2023-01-19T11:45:02;100471.34;;;4.16;100.00
57568;BME280;43403;51.948;5.922;2023-01-19T11:47:37;100471.09;;;4.19;100.00
57568;BME280;43403;51.948;5.922;2023-01-19T11:50:13;100472.22;;;4.28;100.00
57568;BME280;43403;51.948;5.922;2023-01-19T11:52:47;100467.47;;;4.33;100.00
57568;BME280;43403;51.948;5.922;2023-01-19T11:55:29;100473.38;;;4.35;100.00
57568;BME280;43403;51.948;5.922;2023-01-19T11:57:57;100478.47;;;4.36;100.00
57568;BME280;43403;51.948;5.922;2023-01-19T12:00:26;100474.59;;;4.42;100.00
57568;BME280;43403;51.948;5.922;2023-01-19T12:02:59;100474.13;;;4.48;100.00
57568;BME280;43403;51.948;5.922;2023-01-19T12:05:31;100467.53;;;4.55;100.00
57568;BME280;43403;51.948;5.922;2023-01-19T12:08:02;100473.34;;;4.59;100.00
57568;BME280;43403;51.948;5.922;2023-01-19T12:10:38;100473.78;;;4.64;100.00
57568;BME280;43403;51.948;5.922;2023-01-19T12:13:23;100465.28;;;4.62;100.00
57568;BME280;43403;51.948;5.922;2023-01-19T12:15:56;100463.66;;;4.61;100.00
57568;BME280;43403;51.948;5.922;2023-01-19T12:18:29;100471.06;;;4.54;100.00
57568;BME280;43403;51.948;5.922;2023-01-19T12:20:58;100467.53;;;4.55;100.00
57568;BME280;43403;51.948;5.922;2023-01-19T12:28:34;100487.34;;;4.56;100.00
57568;BME280;43403;51.948;5.922;2023-01-19T12:31:02;100466.47;;;4.58;100.00
57568;BME280;43403;51.948;5.922;2023-01-19T12:33:37;100475.81;;;4.72;100.00
57568;BME280;43403;51.948;5.922;2023-01-19T12:38:49;100469.22;;;4.79;100.00
57568;BME280;43403;51.948;5.922;2023-01-19T12:43:47;100474.03;;;4.95;100.00
57568;BME280;43403;51.948;5.922;2023-01-19T12:46:33;100478.78;;;5.01;100.00
57568;BME280;43403;51.948;5.922;2023-01-19T12:49:05;100479.47;;;4.92;100.00
57568;BME280;43403;51.948;5.922;2023-01-19T12:51:34;100479.63;;;4.90;100.00
57568;BME280;43403;51.948;5.922;2023-01-19T12:54:05;100479.59;;;5.02;100.00
57568;BME280;43403;51.948;5.922;2023-01-19T12:56:35;100481.97;;;4.93;100.00
57568;BME280;43403;51.948;5.922;2023-01-19T12:59:03;100478.44;;;4.94;100.00
57568;BME280;43403;51.948;5.922;2023-01-19T13:01:30;100465.44;;;4.83;100.00
57568;BME280;43403;51.948;5.922;2023-01-19T13:04:05;100471.44;;;4.84;100.00
57568;BME280;43403;51.948;5.922;2023-01-19T13:09:35;100465.91;;;4.88;100.00
57568;BME280;43403;51.948;5.922;2023-01-19T13:12:24;100476.16;;;5.01;100.00
57568;BME280;43403;51.948;5.922;2023-01-19T13:15:27;100469.56;;;5.08;100.00
57568;BME280;43403;51.948;5.922;2023-01-19T13:17:54;100474.38;;;5.13;100.00
57568;BME280;43403;51.948;5.922;2023-01-19T13:20:26;100476.41;;;5.21;100.00
57568;BME280;43403;51.948;5.922;2023-01-19T13:23:17;100474.91;;;5.50;100.00
57568;BME280;43403;51.948;5.922;2023-01-19T13:25:48;100477.53;;;5.50;100.00
57568;BME280;43403;51.948;5.922;2023-01-19T13:28:17;100478.97;;;5.43;100.00
57568;BME280;43403;51.948;5.922;2023-01-19T13:30:53;100479.19;;;5.51;100.00
57568;BME280;43403;51.948;5.922;2023-01-19T13:33:24;100477.69;;;5.38;100.00
57568;BME280;43403;51.948;5.922;2023-01-19T13:35:54;100471.28;;;5.42;100.00
57568;BME280;43403;51.948;5.922;2023-01-19T13:38:22;100483.00;;;5.25;100.00
57568;BME280;43403;51.948;5.922;2023-01-19T13:40:49;100479.69;;;5.23;100.00
57568;BME280;43403;51.948;5.922;2023-01-19T13:43:31;100478.28;;;5.30;100.00
57568;BME280;43403;51.948;5.922;2023-01-19T13:46:01;100489.88;;;5.37;100.00
57568;BME280;43403;51.948;5.922;2023-01-19T13:48:30;100493.28;;;5.49;100.00
57568;BME280;43403;51.948;5.922;2023-01-19T13:51:03;100491.81;;;5.56;100.00